Al-Rastan, Syria

11:29 AM EET on October 31, 2014 (GMT +0200)
Bassel Al-Assad International | Change Station
CLOSE
Current Station
Airport
Location: Lattakia,
Elevation: 154 ft
Nearby Weather Stations

Elev 154 ft 35.40 °N, 35.95 °E | Updated 29 minutes ago

Rain Showers
Thunderstorm Showers Rain
55 °F
Feels Like 55 °F
N
12
Wind Variable Wind from East
Gusts 23 mph

Today
High -- | Low -- °F
--% Chance of Precip.
Yesterday
High -- | Low -- °F
Precip. -- in
5:52 AM 4:40 PM
First Quarter, 53% visible
Pressure 29.89 in
Visibility 3.1 miles
Clouds Mostly Cloudy 3000 ft
Dew Point 52 °F
Humidity 88%
Rainfall 0.00 in
Snow Depth Not available.
UV 3 out of 12
Pollen Not available.
Air Quality Not available.
Flu Activity Not available.
METAR OSLK 310900Z 10010G20KT 5000 TSSHRA BKN025 CB BKN030 13/11 Q1012

More Conditions Fewer Conditions

Pressure 29.89 in
Visibility 3.1 miles
Clouds Mostly Cloudy 3000 ft
Dew Point 52 °F
Humidity 88%
Rainfall 0.00 in
Snow Depth Not available.
UV 3 out of 12
Pollen Not available.
Air Quality Not available.
Flu Activity Not available.
METAR OSLK 310900Z 10010G20KT 5000 TSSHRA BKN025 CB BKN030 13/11 Q1012

More Conditions Fewer Conditions

10-Day Weather Forecast

Almanac

Astronomy

Oct. 31, 2014 Rise Set
Actual Time
Civil Twilight
Nautical Twilight
Astronomical Twilight
Moon
Length of Visible Light
Length of Day
Tomorrow will be .
, % of the Moon is Illuminated

Today's Extremes

Country Highs Country Lows

Community

WunderPhotos

Upload Photos

1,766,576 photos uploaded!

WunderBlogs® & News

Nearby

Air Quality

  Air Quality AQ Index Pollutant
Not available.

Snow Depth

Station Depth Elevation

Earthquake Activity

City Distance Mag. Time & Date
Minimum magnitude displayed is 2.5.

Coastal Water Temperatures

Place Temperature

Nearby Weather Stations